sensor_id;sensor_type;location;lat;lon;timestamp;P1;durP1;ratioP1;P2;durP2;ratioP2
69414;SDS011;56608;43.530;-5.652;2023-02-03T00:00:54;16.70;;;8.23;;
69414;SDS011;56608;43.530;-5.652;2023-02-03T00:01:54;16.13;;;8.10;;
69414;SDS011;56608;43.530;-5.652;2023-02-03T00:02:56;16.25;;;7.30;;
69414;SDS011;56608;43.530;-5.652;2023-02-03T00:03:58;14.23;;;7.70;;
69414;SDS011;56608;43.530;-5.652;2023-02-03T00:04:59;16.30;;;7.60;;
69414;SDS011;56608;43.530;-5.652;2023-02-03T00:06:01;15.40;;;7.70;;
69414;SDS011;56608;43.530;-5.652;2023-02-03T00:07:03;16.65;;;8.27;;
69414;SDS011;56608;43.530;-5.652;2023-02-03T00:08:05;19.08;;;8.70;;
69414;SDS011;56608;43.530;-5.652;2023-02-03T00:09:07;14.82;;;8.40;;
69414;SDS011;56608;43.530;-5.652;2023-02-03T00:11:10;16.70;;;7.85;;
69414;SDS011;56608;43.530;-5.652;2023-02-03T00:12:12;16.70;;;8.18;;
69414;SDS011;56608;43.530;-5.652;2023-02-03T00:13:13;14.82;;;7.47;;
69414;SDS011;56608;43.530;-5.652;2023-02-03T00:14:15;14.57;;;7.60;;
69414;SDS011;56608;43.530;-5.652;2023-02-03T00:15:17;14.77;;;8.25;;
69414;SDS011;56608;43.530;-5.652;2023-02-03T00:16:19;14.23;;;7.05;;
69414;SDS011;56608;43.530;-5.652;2023-02-03T00:17:21;16.55;;;7.85;;
69414;SDS011;56608;43.530;-5.652;2023-02-03T00:18:22;15.02;;;6.93;;
69414;SDS011;56608;43.530;-5.652;2023-02-03T00:19:23;13.90;;;7.28;;
69414;SDS011;56608;43.530;-5.652;2023-02-03T00:20:25;17.00;;;7.15;;
69414;SDS011;56608;43.530;-5.652;2023-02-03T00:21:26;15.05;;;7.68;;
69414;SDS011;56608;43.530;-5.652;2023-02-03T00:22:28;13.50;;;7.80;;
69414;SDS011;56608;43.530;-5.652;2023-02-03T00:23:29;17.75;;;7.97;;
69414;SDS011;56608;43.530;-5.652;2023-02-03T00:24:32;16.05;;;7.68;;
69414;SDS011;56608;43.530;-5.652;2023-02-03T00:25:33;14.57;;;6.23;;
69414;SDS011;56608;43.530;-5.652;2023-02-03T00:26:39;12.82;;;5.85;;
69414;SDS011;56608;43.530;-5.652;2023-02-03T00:27:41;14.57;;;6.57;;
69414;SDS011;56608;43.530;-5.652;2023-02-03T00:28:43;14.65;;;6.55;;
69414;SDS011;56608;43.530;-5.652;2023-02-03T00:29:44;13.70;;;6.40;;
69414;SDS011;56608;43.530;-5.652;2023-02-03T00:30:45;14.40;;;6.20;;
69414;SDS011;56608;43.530;-5.652;2023-02-03T00:31:46;16.13;;;6.70;;
69414;SDS011;56608;43.530;-5.652;2023-02-03T00:32:48;14.23;;;6.32;;
69414;SDS011;56608;43.530;-5.652;2023-02-03T00:33:53;15.88;;;6.68;;
69414;SDS011;56608;43.530;-5.652;2023-02-03T00:34:55;14.02;;;6.60;;
69414;SDS011;56608;43.530;-5.652;2023-02-03T00:35:57;13.30;;;6.37;;
69414;SDS011;56608;43.530;-5.652;2023-02-03T00:36:57;17.00;;;7.20;;
69414;SDS011;56608;43.530;-5.652;2023-02-03T00:37:59;14.60;;;6.37;;
69414;SDS011;56608;43.530;-5.652;2023-02-03T00:39:01;13.30;;;6.70;;
69414;SDS011;56608;43.530;-5.652;2023-02-03T00:40:02;14.73;;;6.57;;
69414;SDS011;56608;43.530;-5.652;2023-02-03T00:42:05;11.57;;;6.03;;
69414;SDS011;56608;43.530;-5.652;2023-02-03T00:43:06;15.20;;;6.35;;
69414;SDS011;56608;43.530;-5.652;2023-02-03T00:44:08;13.40;;;6.10;;
69414;SDS011;56608;43.530;-5.652;2023-02-03T00:45:09;13.70;;;5.90;;
69414;SDS011;56608;43.530;-5.652;2023-02-03T00:46:10;11.15;;;6.40;;
69414;SDS011;56608;43.530;-5.652;2023-02-03T00:47:12;11.18;;;5.78;;
69414;SDS011;56608;43.530;-5.652;2023-02-03T00:48:12;12.50;;;6.90;;
69414;SDS011;56608;43.530;-5.652;2023-02-03T00:49:14;11.75;;;6.05;;
69414;SDS011;56608;43.530;-5.652;2023-02-03T00:50:15;13.25;;;6.70;;
69414;SDS011;56608;43.530;-5.652;2023-02-03T00:51:16;12.75;;;5.78;;
69414;SDS011;56608;43.530;-5.652;2023-02-03T00:52:18;13.73;;;6.78;;
69414;SDS011;56608;43.530;-5.652;2023-02-03T00:53:19;14.20;;;6.68;;
69414;SDS011;56608;43.530;-5.652;2023-02-03T00:54:21;15.35;;;6.40;;
69414;SDS011;56608;43.530;-5.652;2023-02-03T00:55:22;14.87;;;6.45;;
69414;SDS011;56608;43.530;-5.652;2023-02-03T00:56:23;12.15;;;6.65;;
69414;SDS011;56608;43.530;-5.652;2023-02-03T00:57:25;14.10;;;6.43;;
69414;SDS011;56608;43.530;-5.652;2023-02-03T00:58:26;15.77;;;6.25;;
69414;SDS011;56608;43.530;-5.652;2023-02-03T00:59:28;9.80;;;5.60;;
69414;SDS011;56608;43.530;-5.652;2023-02-03T01:00:28;13.80;;;5.90;;
69414;SDS011;56608;43.530;-5.652;2023-02-03T01:01:30;12.63;;;6.00;;
69414;SDS011;56608;43.530;-5.652;2023-02-03T01:02:31;10.55;;;5.97;;
69414;SDS011;56608;43.530;-5.652;2023-02-03T01:03:32;9.90;;;5.40;;
69414;SDS011;56608;43.530;-5.652;2023-02-03T01:04:34;11.57;;;6.10;;
69414;SDS011;56608;43.530;-5.652;2023-02-03T01:05:35;12.02;;;6.30;;
69414;SDS011;56608;43.530;-5.652;2023-02-03T01:07:37;10.45;;;5.30;;
69414;SDS011;56608;43.530;-5.652;2023-02-03T01:08:39;12.57;;;5.68;;
69414;SDS011;56608;43.530;-5.652;2023-02-03T01:09:40;10.07;;;6.30;;
69414;SDS011;56608;43.530;-5.652;2023-02-03T01:10:42;11.60;;;4.97;;
69414;SDS011;56608;43.530;-5.652;2023-02-03T01:11:42;10.90;;;5.70;;
69414;SDS011;56608;43.530;-5.652;2023-02-03T01:12:44;10.45;;;5.47;;
69414;SDS011;56608;43.530;-5.652;2023-02-03T01:13:45;10.18;;;4.50;;
69414;SDS011;56608;43.530;-5.652;2023-02-03T01:14:47;11.10;;;5.05;;
69414;SDS011;56608;43.530;-5.652;2023-02-03T01:15:48;10.10;;;4.70;;
69414;SDS011;56608;43.530;-5.652;2023-02-03T01:16:49;10.63;;;5.03;;
69414;SDS011;56608;43.530;-5.652;2023-02-03T01:17:51;14.95;;;4.97;;
69414;SDS011;56608;43.530;-5.652;2023-02-03T01:18:53;13.90;;;4.62;;
69414;SDS011;56608;43.530;-5.652;2023-02-03T01:19:55;11.35;;;4.72;;
69414;SDS011;56608;43.530;-5.652;2023-02-03T01:20:56;9.65;;;4.75;;
69414;SDS011;56608;43.530;-5.652;2023-02-03T01:21:58;11.40;;;4.70;;
69414;SDS011;56608;43.530;-5.652;2023-02-03T01:22:59;11.57;;;4.53;;
69414;SDS011;56608;43.530;-5.652;2023-02-03T01:23:59;14.23;;;5.23;;
69414;SDS011;56608;43.530;-5.652;2023-02-03T01:25:01;14.90;;;5.50;;
69414;SDS011;56608;43.530;-5.652;2023-02-03T01:26:04;12.30;;;5.30;;
69414;SDS011;56608;43.530;-5.652;2023-02-03T01:27:07;11.98;;;5.57;;
69414;SDS011;56608;43.530;-5.652;2023-02-03T01:28:08;11.10;;;5.00;;
69414;SDS011;56608;43.530;-5.652;2023-02-03T01:29:10;10.13;;;5.78;;
69414;SDS011;56608;43.530;-5.652;2023-02-03T01:30:11;12.00;;;6.25;;
69414;SDS011;56608;43.530;-5.652;2023-02-03T01:31:14;13.20;;;5.50;;
69414;SDS011;56608;43.530;-5.652;2023-02-03T01:32:17;12.57;;;5.75;;
69414;SDS011;56608;43.530;-5.652;2023-02-03T01:33:19;14.60;;;6.40;;
69414;SDS011;56608;43.530;-5.652;2023-02-03T01:34:20;12.15;;;5.70;;
69414;SDS011;56608;43.530;-5.652;2023-02-03T01:35:21;12.75;;;6.28;;
69414;SDS011;56608;43.530;-5.652;2023-02-03T01:36:24;9.75;;;5.70;;
69414;SDS011;56608;43.530;-5.652;2023-02-03T01:37:27;9.85;;;5.30;;
69414;SDS011;56608;43.530;-5.652;2023-02-03T01:38:28;7.62;;;5.20;;
69414;SDS011;56608;43.530;-5.652;2023-02-03T01:39:30;9.65;;;5.60;;
69414;SDS011;56608;43.530;-5.652;2023-02-03T01:40:31;11.18;;;5.65;;
69414;SDS011;56608;43.530;-5.652;2023-02-03T01:41:33;10.93;;;5.87;;
69414;SDS011;56608;43.530;-5.652;2023-02-03T01:42:37;13.13;;;6.70;;
69414;SDS011;56608;43.530;-5.652;2023-02-03T01:43:40;15.13;;;6.40;;
69414;SDS011;56608;43.530;-5.652;2023-02-03T01:45:47;14.25;;;6.55;;
69414;SDS011;56608;43.530;-5.652;2023-02-03T01:46:48;11.93;;;6.15;;
69414;SDS011;56608;43.530;-5.652;2023-02-03T01:47:52;12.82;;;6.78;;
69414;SDS011;56608;43.530;-5.652;2023-02-03T01:49:10;15.13;;;6.82;;
69414;SDS011;56608;43.530;-5.652;2023-02-03T01:50:22;14.43;;;6.43;;
69414;SDS011;56608;43.530;-5.652;2023-02-03T01:51:27;14.70;;;6.40;;
69414;SDS011;56608;43.530;-5.652;2023-02-03T01:52:28;14.10;;;6.70;;
69414;SDS011;56608;43.530;-5.652;2023-02-03T01:53:31;16.95;;;7.35;;
69414;SDS011;56608;43.530;-5.652;2023-02-03T01:54:35;13.00;;;6.43;;
69414;SDS011;56608;43.530;-5.652;2023-02-03T01:55:41;13.13;;;6.25;;
69414;SDS011;56608;43.530;-5.652;2023-02-03T01:56:50;16.42;;;6.10;;
69414;SDS011;56608;43.530;-5.652;2023-02-03T01:57:59;11.52;;;6.47;;
69414;SDS011;56608;43.530;-5.652;2023-02-03T01:59:04;15.82;;;7.20;;
69414;SDS011;56608;43.530;-5.652;2023-02-03T02:00:06;17.12;;;6.80;;
69414;SDS011;56608;43.530;-5.652;2023-02-03T02:01:09;12.52;;;6.53;;
69414;SDS011;56608;43.530;-5.652;2023-02-03T02:02:11;13.25;;;7.35;;
69414;SDS011;56608;43.530;-5.652;2023-02-03T02:03:13;12.82;;;6.75;;
69414;SDS011;56608;43.530;-5.652;2023-02-03T02:05:21;14.02;;;5.75;;
69414;SDS011;56608;43.530;-5.652;2023-02-03T02:06:25;11.18;;;6.07;;
69414;SDS011;56608;43.530;-5.652;2023-02-03T02:07:26;11.18;;;5.97;;
69414;SDS011;56608;43.530;-5.652;2023-02-03T02:08:29;10.65;;;6.12;;
69414;SDS011;56608;43.530;-5.652;2023-02-03T02:09:31;13.02;;;6.45;;
69414;SDS011;56608;43.530;-5.652;2023-02-03T02:11:33;14.57;;;6.62;;
69414;SDS011;56608;43.530;-5.652;2023-02-03T02:12:35;13.95;;;6.87;;
69414;SDS011;56608;43.530;-5.652;2023-02-03T02:13:36;12.73;;;7.05;;
69414;SDS011;56608;43.530;-5.652;2023-02-03T02:14:39;13.07;;;6.50;;
69414;SDS011;56608;43.530;-5.652;2023-02-03T02:15:59;13.52;;;6.57;;
69414;SDS011;56608;43.530;-5.652;2023-02-03T02:17:19;13.30;;;6.97;;
69414;SDS011;56608;43.530;-5.652;2023-02-03T02:18:28;12.90;;;6.32;;
69414;SDS011;56608;43.530;-5.652;2023-02-03T02:21:01;12.10;;;5.70;;
69414;SDS011;56608;43.530;-5.652;2023-02-03T02:22:21;14.85;;;6.20;;
69414;SDS011;56608;43.530;-5.652;2023-02-03T02:23:35;12.43;;;5.32;;
69414;SDS011;56608;43.530;-5.652;2023-02-03T02:27:25;11.77;;;5.05;;
69414;SDS011;56608;43.530;-5.652;2023-02-03T02:28:56;13.62;;;6.57;;
69414;SDS011;56608;43.530;-5.652;2023-02-03T02:31:42;13.32;;;5.37;;
69414;SDS011;56608;43.530;-5.652;2023-02-03T02:35:12;11.88;;;6.03;;
69414;SDS011;56608;43.530;-5.652;2023-02-03T02:37:51;10.82;;;6.43;;
69414;SDS011;56608;43.530;-5.652;2023-02-03T02:40:25;11.30;;;6.65;;
69414;SDS011;56608;43.530;-5.652;2023-02-03T02:41:38;10.23;;;5.95;;
69414;SDS011;56608;43.530;-5.652;2023-02-03T02:42:57;16.45;;;7.57;;
69414;SDS011;56608;43.530;-5.652;2023-02-03T02:44:06;13.70;;;7.00;;
69414;SDS011;56608;43.530;-5.652;2023-02-03T02:45:25;11.00;;;6.30;;
69414;SDS011;56608;43.530;-5.652;2023-02-03T02:48:49;13.85;;;7.00;;
69414;SDS011;56608;43.530;-5.652;2023-02-03T02:51:02;13.93;;;7.45;;
69414;SDS011;56608;43.530;-5.652;2023-02-03T02:52:07;13.38;;;7.07;;
69414;SDS011;56608;43.530;-5.652;2023-02-03T02:53:09;12.77;;;6.95;;
69414;SDS011;56608;43.530;-5.652;2023-02-03T02:54:17;15.20;;;6.55;;
69414;SDS011;56608;43.530;-5.652;2023-02-03T02:55:23;11.60;;;5.95;;
69414;SDS011;56608;43.530;-5.652;2023-02-03T02:56:29;9.07;;;5.97;;
69414;SDS011;56608;43.530;-5.652;2023-02-03T02:57:34;10.98;;;5.95;;
69414;SDS011;56608;43.530;-5.652;2023-02-03T02:58:38;14.60;;;5.97;;
69414;SDS011;56608;43.530;-5.652;2023-02-03T02:59:44;11.52;;;6.80;;
69414;SDS011;56608;43.530;-5.652;2023-02-03T03:00:47;12.20;;;7.28;;
69414;SDS011;56608;43.530;-5.652;2023-02-03T03:01:48;17.42;;;7.55;;
69414;SDS011;56608;43.530;-5.652;2023-02-03T03:02:51;14.38;;;7.28;;
69414;SDS011;56608;43.530;-5.652;2023-02-03T03:03:52;13.65;;;6.78;;
69414;SDS011;56608;43.530;-5.652;2023-02-03T03:04:53;14.50;;;7.33;;
69414;SDS011;56608;43.530;-5.652;2023-02-03T03:06:02;13.20;;;6.60;;
69414;SDS011;56608;43.530;-5.652;2023-02-03T03:07:18;14.07;;;7.18;;
69414;SDS011;56608;43.530;-5.652;2023-02-03T03:08:29;16.35;;;7.32;;
69414;SDS011;56608;43.530;-5.652;2023-02-03T03:10:02;15.57;;;6.85;;
69414;SDS011;56608;43.530;-5.652;2023-02-03T03:11:07;13.25;;;7.50;;
69414;SDS011;56608;43.530;-5.652;2023-02-03T03:12:16;12.15;;;7.03;;
69414;SDS011;56608;43.530;-5.652;2023-02-03T03:13:21;14.65;;;6.45;;
69414;SDS011;56608;43.530;-5.652;2023-02-03T03:14:28;15.32;;;5.95;;
69414;SDS011;56608;43.530;-5.652;2023-02-03T03:15:31;13.00;;;6.45;;
69414;SDS011;56608;43.530;-5.652;2023-02-03T03:16:36;12.13;;;6.40;;
69414;SDS011;56608;43.530;-5.652;2023-02-03T03:17:40;13.65;;;6.80;;
69414;SDS011;56608;43.530;-5.652;2023-02-03T03:18:47;12.32;;;6.93;;
69414;SDS011;56608;43.530;-5.652;2023-02-03T03:19:51;11.70;;;6.78;;
69414;SDS011;56608;43.530;-5.652;2023-02-03T03:20:56;12.77;;;6.57;;
69414;SDS011;56608;43.530;-5.652;2023-02-03T03:22:06;14.73;;;6.85;;
69414;SDS011;56608;43.530;-5.652;2023-02-03T03:23:14;11.90;;;5.12;;
69414;SDS011;56608;43.530;-5.652;2023-02-03T03:24:23;8.73;;;5.12;;
69414;SDS011;56608;43.530;-5.652;2023-02-03T03:25:31;9.38;;;4.65;;
69414;SDS011;56608;43.530;-5.652;2023-02-03T03:27:27;12.68;;;6.20;;
69414;SDS011;56608;43.530;-5.652;2023-02-03T03:28:32;12.95;;;5.78;;
69414;SDS011;56608;43.530;-5.652;2023-02-03T03:30:50;10.48;;;4.78;;
69414;SDS011;56608;43.530;-5.652;2023-02-03T03:31:53;9.60;;;4.68;;
69414;SDS011;56608;43.530;-5.652;2023-02-03T03:32:54;12.85;;;4.72;;
69414;SDS011;56608;43.530;-5.652;2023-02-03T03:33:58;11.75;;;5.22;;
69414;SDS011;56608;43.530;-5.652;2023-02-03T03:35:00;14.10;;;5.40;;
69414;SDS011;56608;43.530;-5.652;2023-02-03T03:36:11;10.43;;;4.57;;
69414;SDS011;56608;43.530;-5.652;2023-02-03T03:37:18;10.65;;;4.70;;
69414;SDS011;56608;43.530;-5.652;2023-02-03T03:38:22;8.93;;;5.15;;
69414;SDS011;56608;43.530;-5.652;2023-02-03T03:40:38;9.48;;;4.55;;
69414;SDS011;56608;43.530;-5.652;2023-02-03T03:42:26;11.12;;;4.90;;
69414;SDS011;56608;43.530;-5.652;2023-02-03T03:44:17;8.68;;;4.35;;
69414;SDS011;56608;43.530;-5.652;2023-02-03T03:45:23;9.75;;;4.78;;
69414;SDS011;56608;43.530;-5.652;2023-02-03T03:46:35;10.77;;;4.75;;
69414;SDS011;56608;43.530;-5.652;2023-02-03T03:48:49;14.00;;;6.80;;
69414;SDS011;56608;43.530;-5.652;2023-02-03T03:49:53;12.10;;;4.70;;
69414;SDS011;56608;43.530;-5.652;2023-02-03T03:50:57;9.60;;;4.47;;
69414;SDS011;56608;43.530;-5.652;2023-02-03T03:52:06;9.32;;;4.95;;
69414;SDS011;56608;43.530;-5.652;2023-02-03T03:53:10;16.90;;;5.10;;
69414;SDS011;56608;43.530;-5.652;2023-02-03T03:54:17;10.75;;;5.32;;
69414;SDS011;56608;43.530;-5.652;2023-02-03T03:55:20;11.20;;;4.68;;
69414;SDS011;56608;43.530;-5.652;2023-02-03T03:56:29;8.60;;;4.65;;
69414;SDS011;56608;43.530;-5.652;2023-02-03T03:57:45;8.13;;;4.68;;
69414;SDS011;56608;43.530;-5.652;2023-02-03T03:58:59;14.32;;;5.35;;
69414;SDS011;56608;43.530;-5.652;2023-02-03T04:00:03;9.25;;;4.85;;
69414;SDS011;56608;43.530;-5.652;2023-02-03T04:01:06;11.05;;;5.18;;
69414;SDS011;56608;43.530;-5.652;2023-02-03T04:02:09;11.75;;;5.85;;
69414;SDS011;56608;43.530;-5.652;2023-02-03T04:03:14;12.85;;;5.78;;
69414;SDS011;56608;43.530;-5.652;2023-02-03T04:04:19;12.40;;;6.87;;
69414;SDS011;56608;43.530;-5.652;2023-02-03T04:05:23;12.13;;;6.05;;
69414;SDS011;56608;43.530;-5.652;2023-02-03T04:06:25;16.50;;;7.00;;
69414;SDS011;56608;43.530;-5.652;2023-02-03T04:07:36;11.60;;;6.80;;
69414;SDS011;56608;43.530;-5.652;2023-02-03T04:08:47;12.48;;;6.72;;
69414;SDS011;56608;43.530;-5.652;2023-02-03T04:09:48;17.37;;;6.77;;
69414;SDS011;56608;43.530;-5.652;2023-02-03T04:10:50;13.43;;;6.35;;
69414;SDS011;56608;43.530;-5.652;2023-02-03T04:11:51;17.92;;;7.40;;
69414;SDS011;56608;43.530;-5.652;2023-02-03T04:13:01;13.52;;;6.62;;
69414;SDS011;56608;43.530;-5.652;2023-02-03T04:14:04;15.65;;;6.68;;
69414;SDS011;56608;43.530;-5.652;2023-02-03T04:15:05;15.65;;;5.95;;
69414;SDS011;56608;43.530;-5.652;2023-02-03T04:16:06;14.90;;;5.70;;
69414;SDS011;56608;43.530;-5.652;2023-02-03T04:17:08;15.85;;;6.85;;
69414;SDS011;56608;43.530;-5.652;2023-02-03T04:18:10;15.98;;;7.05;;
69414;SDS011;56608;43.530;-5.652;2023-02-03T04:19:14;14.13;;;6.70;;
69414;SDS011;56608;43.530;-5.652;2023-02-03T04:20:15;10.38;;;6.15;;
69414;SDS011;56608;43.530;-5.652;2023-02-03T04:22:18;11.45;;;5.55;;
69414;SDS011;56608;43.530;-5.652;2023-02-03T04:23:19;11.75;;;5.25;;
69414;SDS011;56608;43.530;-5.652;2023-02-03T04:24:20;10.85;;;5.10;;
69414;SDS011;56608;43.530;-5.652;2023-02-03T04:25:22;8.77;;;4.60;;
69414;SDS011;56608;43.530;-5.652;2023-02-03T04:26:24;9.25;;;4.53;;
69414;SDS011;56608;43.530;-5.652;2023-02-03T04:27:26;10.13;;;4.47;;
69414;SDS011;56608;43.530;-5.652;2023-02-03T04:28:27;10.45;;;4.90;;
69414;SDS011;56608;43.530;-5.652;2023-02-03T04:29:28;7.10;;;4.50;;
69414;SDS011;56608;43.530;-5.652;2023-02-03T04:30:30;8.02;;;4.15;;
69414;SDS011;56608;43.530;-5.652;2023-02-03T04:32:32;7.18;;;3.95;;
69414;SDS011;56608;43.530;-5.652;2023-02-03T04:33:35;11.57;;;4.30;;
69414;SDS011;56608;43.530;-5.652;2023-02-03T04:34:36;8.90;;;4.20;;
69414;SDS011;56608;43.530;-5.652;2023-02-03T04:35:38;10.10;;;4.25;;
69414;SDS011;56608;43.530;-5.652;2023-02-03T04:36:38;11.05;;;4.65;;
69414;SDS011;56608;43.530;-5.652;2023-02-03T04:37:40;9.93;;;4.78;;
69414;SDS011;56608;43.530;-5.652;2023-02-03T04:38:41;7.15;;;4.05;;
69414;SDS011;56608;43.530;-5.652;2023-02-03T04:39:43;8.88;;;4.45;;
69414;SDS011;56608;43.530;-5.652;2023-02-03T04:40:43;12.87;;;5.13;;
69414;SDS011;56608;43.530;-5.652;2023-02-03T04:41:45;7.47;;;4.28;;
69414;SDS011;56608;43.530;-5.652;2023-02-03T04:42:46;9.20;;;4.68;;
69414;SDS011;56608;43.530;-5.652;2023-02-03T04:43:48;10.75;;;5.00;;
69414;SDS011;56608;43.530;-5.652;2023-02-03T04:44:49;14.23;;;4.40;;
69414;SDS011;56608;43.530;-5.652;2023-02-03T04:45:51;6.50;;;4.15;;
69414;SDS011;56608;43.530;-5.652;2023-02-03T04:46:52;7.70;;;4.78;;
69414;SDS011;56608;43.530;-5.652;2023-02-03T04:47:54;11.00;;;4.55;;
69414;SDS011;56608;43.530;-5.652;2023-02-03T04:48:55;8.60;;;4.07;;
69414;SDS011;56608;43.530;-5.652;2023-02-03T04:49:57;11.45;;;4.70;;
69414;SDS011;56608;43.530;-5.652;2023-02-03T04:51:02;11.55;;;5.40;;
69414;SDS011;56608;43.530;-5.652;2023-02-03T04:52:05;10.35;;;5.32;;
69414;SDS011;56608;43.530;-5.652;2023-02-03T04:53:07;10.38;;;5.50;;
69414;SDS011;56608;43.530;-5.652;2023-02-03T04:54:08;9.57;;;5.32;;
69414;SDS011;56608;43.530;-5.652;2023-02-03T04:55:11;9.80;;;6.18;;
69414;SDS011;56608;43.530;-5.652;2023-02-03T04:56:12;9.75;;;6.00;;
69414;SDS011;56608;43.530;-5.652;2023-02-03T04:57:15;17.52;;;7.22;;
69414;SDS011;56608;43.530;-5.652;2023-02-03T04:58:16;13.45;;;6.75;;
69414;SDS011;56608;43.530;-5.652;2023-02-03T04:59:17;9.80;;;6.40;;
69414;SDS011;56608;43.530;-5.652;2023-02-03T05:00:19;12.80;;;7.03;;
69414;SDS011;56608;43.530;-5.652;2023-02-03T05:02:21;15.65;;;7.30;;
69414;SDS011;56608;43.530;-5.652;2023-02-03T05:03:23;20.00;;;7.60;;
69414;SDS011;56608;43.530;-5.652;2023-02-03T05:04:24;13.20;;;7.47;;
69414;SDS011;56608;43.530;-5.652;2023-02-03T05:05:26;15.23;;;7.05;;
69414;SDS011;56608;43.530;-5.652;2023-02-03T05:06:27;11.97;;;7.57;;
69414;SDS011;56608;43.530;-5.652;2023-02-03T05:07:30;13.98;;;7.60;;
69414;SDS011;56608;43.530;-5.652;2023-02-03T05:08:31;11.73;;;7.05;;
69414;SDS011;56608;43.530;-5.652;2023-02-03T05:09:32;11.60;;;6.65;;
69414;SDS011;56608;43.530;-5.652;2023-02-03T05:10:34;17.10;;;8.93;;
69414;SDS011;56608;43.530;-5.652;2023-02-03T05:11:35;14.00;;;8.00;;
69414;SDS011;56608;43.530;-5.652;2023-02-03T05:12:37;14.60;;;7.20;;
69414;SDS011;56608;43.530;-5.652;2023-02-03T05:13:38;11.20;;;7.05;;
69414;SDS011;56608;43.530;-5.652;2023-02-03T05:14:39;15.95;;;7.03;;
69414;SDS011;56608;43.530;-5.652;2023-02-03T05:15:41;12.88;;;6.60;;
69414;SDS011;56608;43.530;-5.652;2023-02-03T05:16:42;13.88;;;7.62;;
69414;SDS011;56608;43.530;-5.652;2023-02-03T05:17:43;13.80;;;7.18;;
69414;SDS011;56608;43.530;-5.652;2023-02-03T05:18:45;13.20;;;6.90;;
69414;SDS011;56608;43.530;-5.652;2023-02-03T05:19:46;14.90;;;6.97;;
69414;SDS011;56608;43.530;-5.652;2023-02-03T05:20:48;14.02;;;6.45;;
69414;SDS011;56608;43.530;-5.652;2023-02-03T05:21:49;12.50;;;6.40;;
69414;SDS011;56608;43.530;-5.652;2023-02-03T05:23:52;13.85;;;6.80;;
69414;SDS011;56608;43.530;-5.652;2023-02-03T05:24:53;9.75;;;5.80;;
69414;SDS011;56608;43.530;-5.652;2023-02-03T05:25:54;10.52;;;5.93;;
69414;SDS011;56608;43.530;-5.652;2023-02-03T05:26:56;12.05;;;6.07;;
69414;SDS011;56608;43.530;-5.652;2023-02-03T05:27:57;14.40;;;7.05;;
69414;SDS011;56608;43.530;-5.652;2023-02-03T05:28:59;9.20;;;5.37;;
69414;SDS011;56608;43.530;-5.652;2023-02-03T05:31:01;9.73;;;5.07;;
69414;SDS011;56608;43.530;-5.652;2023-02-03T05:32:02;12.37;;;5.37;;
69414;SDS011;56608;43.530;-5.652;2023-02-03T05:33:04;7.97;;;4.47;;
69414;SDS011;56608;43.530;-5.652;2023-02-03T05:34:05;10.15;;;5.07;;
69414;SDS011;56608;43.530;-5.652;2023-02-03T05:35:07;9.07;;;4.37;;
69414;SDS011;56608;43.530;-5.652;2023-02-03T05:36:08;7.90;;;4.60;;
69414;SDS011;56608;43.530;-5.652;2023-02-03T05:37:10;11.07;;;5.23;;
69414;SDS011;56608;43.530;-5.652;2023-02-03T05:38:11;8.30;;;4.55;;
69414;SDS011;56608;43.530;-5.652;2023-02-03T05:39:11;10.30;;;4.30;;
69414;SDS011;56608;43.530;-5.652;2023-02-03T05:40:13;11.45;;;4.47;;
69414;SDS011;56608;43.530;-5.652;2023-02-03T05:41:33;10.77;;;4.15;;
69414;SDS011;56608;43.530;-5.652;2023-02-03T05:42:53;7.37;;;3.72;;
69414;SDS011;56608;43.530;-5.652;2023-02-03T05:43:54;7.90;;;3.85;;
69414;SDS011;56608;43.530;-5.652;2023-02-03T05:44:56;7.72;;;4.37;;
69414;SDS011;56608;43.530;-5.652;2023-02-03T05:46:00;11.63;;;4.37;;
69414;SDS011;56608;43.530;-5.652;2023-02-03T05:47:03;8.68;;;4.37;;
69414;SDS011;56608;43.530;-5.652;2023-02-03T05:48:04;9.60;;;4.67;;
69414;SDS011;56608;43.530;-5.652;2023-02-03T05:49:07;8.65;;;4.68;;
69414;SDS011;56608;43.530;-5.652;2023-02-03T05:50:07;8.80;;;4.40;;
69414;SDS011;56608;43.530;-5.652;2023-02-03T05:51:09;7.85;;;3.90;;
69414;SDS011;56608;43.530;-5.652;2023-02-03T05:52:11;8.83;;;4.57;;
69414;SDS011;56608;43.530;-5.652;2023-02-03T05:53:11;8.75;;;4.50;;
69414;SDS011;56608;43.530;-5.652;2023-02-03T05:54:13;9.95;;;4.05;;
69414;SDS011;56608;43.530;-5.652;2023-02-03T05:55:15;8.82;;;4.37;;
69414;SDS011;56608;43.530;-5.652;2023-02-03T05:56:16;9.27;;;4.30;;
69414;SDS011;56608;43.530;-5.652;2023-02-03T05:57:17;15.30;;;4.80;;
69414;SDS011;56608;43.530;-5.652;2023-02-03T05:58:19;10.13;;;4.32;;
69414;SDS011;56608;43.530;-5.652;2023-02-03T05:59:20;9.65;;;4.30;;
69414;SDS011;56608;43.530;-5.652;2023-02-03T06:00:22;9.95;;;4.55;;
69414;SDS011;56608;43.530;-5.652;2023-02-03T06:01:23;9.73;;;4.78;;
69414;SDS011;56608;43.530;-5.652;2023-02-03T06:02:25;8.20;;;4.75;;
69414;SDS011;56608;43.530;-5.652;2023-02-03T06:03:25;13.50;;;5.30;;
69414;SDS011;56608;43.530;-5.652;2023-02-03T06:04:27;10.25;;;4.90;;
69414;SDS011;56608;43.530;-5.652;2023-02-03T06:05:30;9.90;;;5.50;;
69414;SDS011;56608;43.530;-5.652;2023-02-03T06:06:32;10.80;;;5.72;;
69414;SDS011;56608;43.530;-5.652;2023-02-03T06:07:34;9.05;;;5.05;;
69414;SDS011;56608;43.530;-5.652;2023-02-03T06:08:36;10.50;;;5.55;;
69414;SDS011;56608;43.530;-5.652;2023-02-03T06:09:37;17.17;;;5.28;;
69414;SDS011;56608;43.530;-5.652;2023-02-03T06:10:38;10.15;;;5.45;;
69414;SDS011;56608;43.530;-5.652;2023-02-03T06:11:40;10.73;;;4.90;;
69414;SDS011;56608;43.530;-5.652;2023-02-03T06:12:42;12.63;;;5.25;;
69414;SDS011;56608;43.530;-5.652;2023-02-03T06:13:44;10.20;;;4.85;;
69414;SDS011;56608;43.530;-5.652;2023-02-03T06:14:47;11.48;;;4.95;;
69414;SDS011;56608;43.530;-5.652;2023-02-03T06:15:48;9.35;;;4.75;;
69414;SDS011;56608;43.530;-5.652;2023-02-03T06:16:50;9.75;;;4.43;;
69414;SDS011;56608;43.530;-5.652;2023-02-03T06:17:51;8.65;;;4.30;;
69414;SDS011;56608;43.530;-5.652;2023-02-03T06:18:54;8.57;;;3.97;;
69414;SDS011;56608;43.530;-5.652;2023-02-03T06:19:58;8.77;;;4.57;;
69414;SDS011;56608;43.530;-5.652;2023-02-03T06:20:59;10.95;;;4.32;;
69414;SDS011;56608;43.530;-5.652;2023-02-03T06:22:01;10.55;;;4.72;;
69414;SDS011;56608;43.530;-5.652;2023-02-03T06:23:02;10.75;;;4.55;;
69414;SDS011;56608;43.530;-5.652;2023-02-03T06:24:04;11.52;;;4.72;;
69414;SDS011;56608;43.530;-5.652;2023-02-03T06:25:05;9.23;;;4.60;;
69414;SDS011;56608;43.530;-5.652;2023-02-03T06:26:07;8.40;;;4.60;;
69414;SDS011;56608;43.530;-5.652;2023-02-03T06:27:08;8.20;;;4.03;;
69414;SDS011;56608;43.530;-5.652;2023-02-03T06:28:10;8.30;;;4.20;;
69414;SDS011;56608;43.530;-5.652;2023-02-03T06:29:11;14.40;;;4.57;;
69414;SDS011;56608;43.530;-5.652;2023-02-03T06:30:13;10.57;;;4.28;;
69414;SDS011;56608;43.530;-5.652;2023-02-03T06:31:14;15.35;;;4.82;;
69414;SDS011;56608;43.530;-5.652;2023-02-03T06:32:16;10.50;;;4.30;;
69414;SDS011;56608;43.530;-5.652;2023-02-03T06:33:20;8.10;;;4.50;;
69414;SDS011;56608;43.530;-5.652;2023-02-03T06:34:21;8.23;;;5.25;;
69414;SDS011;56608;43.530;-5.652;2023-02-03T06:35:23;7.20;;;4.00;;
69414;SDS011;56608;43.530;-5.652;2023-02-03T06:36:24;7.45;;;4.60;;
69414;SDS011;56608;43.530;-5.652;2023-02-03T06:37:26;10.32;;;4.45;;
69414;SDS011;56608;43.530;-5.652;2023-02-03T06:38:27;10.82;;;4.72;;
69414;SDS011;56608;43.530;-5.652;2023-02-03T06:39:27;10.37;;;4.73;;
69414;SDS011;56608;43.530;-5.652;2023-02-03T06:40:29;12.35;;;5.25;;
69414;SDS011;56608;43.530;-5.652;2023-02-03T06:41:31;7.57;;;4.35;;
69414;SDS011;56608;43.530;-5.652;2023-02-03T06:42:32;10.10;;;5.40;;
69414;SDS011;56608;43.530;-5.652;2023-02-03T06:43:34;12.10;;;5.15;;